Time;durP1;ratioP1;P1;durP2;ratioP2;P2;SDS_P1;SDS_P2;PMS_P1;PMS_P2;Temp;Humidity;BMP_temperature;BMP_pressure;BME280_temperature;BME280_humidity;BME280_pressure;Samples;Min_cycle;Max_cycle;Signal;HPM_P1;HPM_P2
2022/06/12 00:00:37;;;;;;;3.60;1.00;;;15.10;99.90;;;;;;4905919;29;20100;-65
2022/06/12 00:03:05;;;;;;;2.65;1.00;;;15.00;99.90;;;;;;4905804;29;20148;-65
2022/06/12 00:05:34;;;;;;;2.40;1.27;;;15.00;99.90;;;;;;4905640;29;20164;-65
2022/06/12 00:08:02;;;;;;;2.38;1.00;;;15.00;99.90;;;;;;4905851;29;20166;-66
2022/06/12 00:10:29;;;;;;;2.45;1.02;;;15.00;99.90;;;;;;4904798;29;20077;-65
2022/06/12 00:12:55;;;;;;;1.73;0.77;;;14.90;99.90;;;;;;4905289;29;20076;-65
2022/06/12 00:15:24;;;;;;;1.17;0.70;;;14.90;99.90;;;;;;4906085;29;20071;-65
2022/06/12 00:17:51;;;;;;;2.45;1.00;;;14.80;99.90;;;;;;4906148;29;20138;-65
2022/06/12 00:20:18;;;;;;;2.15;0.90;;;14.80;99.90;;;;;;4889990;29;20076;-66
2022/06/12 00:22:45;;;;;;;3.15;1.17;;;14.80;99.90;;;;;;4906286;29;20143;-65
2022/06/12 00:25:13;;;;;;;2.53;1.23;;;14.70;99.90;;;;;;4904998;29;20064;-66
2022/06/12 00:27:41;;;;;;;1.80;1.02;;;14.70;99.90;;;;;;4915453;29;20506;-65
2022/06/12 00:30:09;;;;;;;2.53;1.20;;;14.60;99.90;;;;;;4924396;29;20134;-66
2022/06/12 00:32:36;;;;;;;2.45;1.35;;;14.60;99.90;;;;;;4877959;29;20138;-66
2022/06/12 00:35:06;;;;;;;2.38;1.02;;;14.50;99.90;;;;;;4924984;29;20131;-66
2022/06/12 00:37:33;;;;;;;2.78;1.40;;;14.50;99.90;;;;;;4924706;29;20052;-65
2022/06/12 00:39:59;;;;;;;4.45;1.42;;;14.50;99.90;;;;;;4907963;29;20082;-65
2022/06/12 00:42:48;;;;;;;2.88;1.17;;;14.50;99.90;;;;;;4888749;29;20052;-66
2022/06/12 00:45:36;;;;;;;2.40;1.00;;;14.40;99.90;;;;;;4911652;29;20147;-66
2022/06/12 00:48:12;;;;;;;3.25;1.27;;;14.40;99.90;;;;;;4924943;29;20074;-65
2022/06/12 00:50:43;;;;;;;1.90;1.10;;;14.40;99.90;;;;;;4893113;29;20091;-65
2022/06/12 00:53:13;;;;;;;3.15;1.20;;;14.40;99.90;;;;;;4876960;29;20127;-65
2022/06/12 00:55:45;;;;;;;2.78;1.35;;;14.30;99.90;;;;;;4907659;29;20051;-65
2022/06/12 00:58:16;;;;;;;1.85;1.15;;;14.30;99.90;;;;;;4922854;29;20174;-66
2022/06/12 01:00:42;;;;;;;2.08;1.38;;;14.30;99.90;;;;;;4892106;29;20114;-66
2022/06/12 01:03:09;;;;;;;3.10;1.17;;;14.20;99.90;;;;;;4890775;29;20321;-65
2022/06/12 01:08:22;;;;;;;2.97;1.42;;;14.20;99.90;;;;;;4924758;29;20055;-65
2022/06/12 01:10:49;;;;;;;2.08;1.10;;;14.10;99.90;;;;;;4907315;29;20086;-65
2022/06/12 01:13:25;;;;;;;2.10;1.17;;;14.10;99.90;;;;;;4889717;29;20861;-65
2022/06/12 01:15:54;;;;;;;4.15;1.55;;;14.10;99.90;;;;;;4893070;29;20073;-65
2022/06/12 01:18:26;;;;;;;3.15;1.48;;;14.00;99.90;;;;;;4907576;29;20119;-66
2022/06/12 01:21:14;;;;;;;3.70;1.10;;;14.00;99.90;;;;;;4907745;29;20570;-65
2022/06/12 01:24:07;;;;;;;1.70;0.95;;;14.00;99.90;;;;;;4924066;29;20143;-65
2022/06/12 01:27:11;;;;;;;2.85;1.05;;;13.90;99.90;;;;;;4908576;29;20601;-65
2022/06/12 01:29:48;;;;;;;2.33;1.00;;;13.90;99.90;;;;;;4923727;29;20051;-65
2022/06/12 01:32:22;;;;;;;1.85;0.98;;;13.80;99.90;;;;;;4924674;29;20142;-65
2022/06/12 01:34:51;;;;;;;2.20;0.90;;;13.80;99.90;;;;;;4908812;29;20135;-66
2022/06/12 01:37:36;;;;;;;1.50;0.80;;;13.80;99.90;;;;;;4909901;29;20083;-66
2022/06/12 01:40:16;;;;;;;1.50;0.60;;;13.70;99.90;;;;;;4926151;29;20048;-66
2022/06/12 01:42:47;;;;;;;1.80;1.00;;;13.70;99.90;;;;;;4909119;29;20053;-65
2022/06/12 01:45:38;;;;;;;1.98;0.82;;;13.60;99.90;;;;;;4889890;29;20114;-65
2022/06/12 01:48:26;;;;;;;1.58;0.88;;;13.60;99.90;;;;;;4907420;29;20087;-65
2022/06/12 01:51:21;;;;;;;1.75;1.05;;;13.50;99.90;;;;;;4909113;29;20349;-65
2022/06/12 01:53:54;;;;;;;2.05;0.90;;;13.40;99.90;;;;;;4893347;29;20095;-65
2022/06/12 01:56:23;;;;;;;1.63;0.85;;;13.40;99.90;;;;;;4925057;29;20086;-65
2022/06/12 01:58:58;;;;;;;2.25;0.95;;;13.40;99.90;;;;;;4907871;29;20052;-66
2022/06/12 02:01:46;;;;;;;0.80;0.60;;;13.30;99.90;;;;;;4891403;29;20062;-66
2022/06/12 02:04:38;;;;;;;2.20;0.90;;;13.30;99.90;;;;;;4904543;29;20052;-65
2022/06/12 02:07:16;;;;;;;1.58;0.93;;;13.30;99.90;;;;;;4925675;29;20147;-65
2022/06/12 02:09:51;;;;;;;1.30;0.73;;;13.20;99.90;;;;;;4908934;29;20138;-65
2022/06/12 02:15:14;;;;;;;2.03;0.80;;;13.10;99.90;;;;;;4897427;29;20047;-65
2022/06/12 02:18:03;;;;;;;1.45;0.70;;;13.10;99.90;;;;;;4909161;29;20055;-66
2022/06/12 02:20:35;;;;;;;1.25;0.60;;;13.00;99.90;;;;;;4848459;29;20471;-66
2022/06/12 02:23:09;;;;;;;1.98;0.80;;;13.00;99.90;;;;;;4892710;29;20079;-65
2022/06/12 02:25:38;;;;;;;1.35;0.82;;;12.90;99.90;;;;;;4908500;29;20170;-65
2022/06/12 02:28:16;;;;;;;1.10;0.70;;;12.90;99.90;;;;;;4894352;29;20210;-65
2022/06/12 02:30:47;;;;;;;0.90;0.60;;;12.90;99.90;;;;;;4897297;29;20174;-65
2022/06/12 02:33:22;;;;;;;1.23;0.75;;;12.80;99.90;;;;;;4896013;29;20081;-65
2022/06/12 02:35:52;;;;;;;2.53;0.93;;;12.80;99.90;;;;;;4912505;29;20184;-66
2022/06/12 02:38:40;;;;;;;1.70;0.73;;;12.70;99.90;;;;;;4911591;29;20447;-68
2022/06/12 02:41:12;;;;;;;1.55;0.82;;;12.70;99.90;;;;;;4898043;29;20500;-65
2022/06/12 02:43:42;;;;;;;0.98;0.60;;;12.70;99.90;;;;;;4910567;29;20130;-65
2022/06/12 02:46:14;;;;;;;2.38;0.98;;;12.70;99.90;;;;;;4896835;29;20051;-65
2022/06/12 02:48:41;;;;;;;1.67;0.80;;;12.60;99.90;;;;;;4912240;29;20063;-65
2022/06/12 02:51:18;;;;;;;1.85;0.70;;;12.60;99.90;;;;;;4928844;29;20536;-65
2022/06/12 02:54:00;;;;;;;1.60;0.63;;;12.60;99.90;;;;;;4928192;29;20039;-65
2022/06/12 02:56:42;;;;;;;1.52;0.68;;;12.60;99.90;;;;;;4911442;29;20056;-65
2022/06/12 02:59:27;;;;;;;2.08;1.05;;;12.50;99.90;;;;;;4927350;29;20193;-65
2022/06/12 03:02:09;;;;;;;1.45;0.90;;;12.40;99.90;;;;;;4912652;29;20498;-65
2022/06/12 03:04:44;;;;;;;1.83;0.90;;;12.50;99.90;;;;;;4928538;29;20051;-65
2022/06/12 03:07:11;;;;;;;0.93;0.68;;;12.40;99.90;;;;;;4912853;29;20143;-65
2022/06/12 03:09:38;;;;;;;1.25;0.68;;;12.40;99.90;;;;;;4911262;29;20417;-65
2022/06/12 03:12:06;;;;;;;0.90;0.68;;;12.30;99.90;;;;;;4910463;29;20136;-65
2022/06/12 03:14:32;;;;;;;1.65;0.70;;;12.30;99.90;;;;;;4927691;29;20144;-65
2022/06/12 03:16:59;;;;;;;2.15;1.10;;;12.30;99.90;;;;;;4928055;29;20051;-65
2022/06/12 03:19:33;;;;;;;1.50;0.70;;;12.30;99.90;;;;;;4911274;29;20491;-65
2022/06/12 03:22:09;;;;;;;1.25;0.70;;;12.30;99.90;;;;;;4896562;29;20135;-65
2022/06/12 03:25:04;;;;;;;1.30;0.80;;;12.30;99.90;;;;;;4911836;29;20639;-65
2022/06/12 03:28:08;;;;;;;1.25;0.70;;;12.20;99.90;;;;;;4910118;29;20079;-65
2022/06/12 03:30:40;;;;;;;1.73;1.02;;;12.20;99.90;;;;;;4892949;29;20155;-65
2022/06/12 03:33:38;;;;;;;2.05;1.13;;;12.20;99.90;;;;;;4905605;29;20058;-65
2022/06/12 03:36:35;;;;;;;1.27;0.90;;;12.20;99.90;;;;;;4895963;29;20079;-65
2022/06/12 03:39:08;;;;;;;1.25;0.63;;;12.20;99.90;;;;;;4903307;29;20130;-65
2022/06/12 03:41:53;;;;;;;1.50;0.80;;;12.10;99.90;;;;;;4910758;29;20130;-65
2022/06/12 03:44:32;;;;;;;1.65;0.80;;;12.20;99.90;;;;;;4909461;29;20673;-65
2022/06/12 03:47:29;;;;;;;2.13;1.40;;;12.10;99.90;;;;;;4926850;29;20044;-65
2022/06/12 03:50:05;;;;;;;1.10;0.70;;;12.10;99.90;;;;;;4896910;29;20215;-65
2022/06/12 03:52:52;;;;;;;2.22;1.17;;;12.10;99.90;;;;;;4928372;29;20118;-65
2022/06/12 03:55:19;;;;;;;1.77;1.00;;;12.10;99.90;;;;;;4897556;29;20130;-66
2022/06/12 03:57:53;;;;;;;1.25;0.70;;;12.10;99.90;;;;;;4926373;29;20095;-66
2022/06/12 04:00:27;;;;;;;2.38;0.90;;;12.10;99.90;;;;;;4902373;29;20062;-65
2022/06/12 04:03:08;;;;;;;2.00;0.93;;;12.10;99.90;;;;;;4911361;29;20568;-65
2022/06/12 04:05:56;;;;;;;1.50;1.00;;;12.10;99.90;;;;;;4899849;29;20151;-65
2022/06/12 04:08:36;;;;;;;2.65;1.02;;;12.10;99.90;;;;;;4910837;29;20044;-65
2022/06/12 04:11:03;;;;;;;2.15;1.02;;;12.20;99.90;;;;;;4879638;29;20684;-65
2022/06/12 04:13:29;;;;;;;1.88;1.00;;;12.20;99.90;;;;;;4892355;29;20207;-65
2022/06/12 04:16:09;;;;;;;1.88;1.00;;;12.20;99.90;;;;;;4911135;29;20110;-65
2022/06/12 04:18:36;;;;;;;3.30;1.10;;;12.20;99.90;;;;;;4910661;29;20087;-65
2022/06/12 04:21:08;;;;;;;2.40;1.00;;;12.20;99.90;;;;;;4910777;29;20424;-65
2022/06/12 04:24:01;;;;;;;2.22;1.00;;;12.30;99.90;;;;;;4909620;29;20158;-65
2022/06/12 04:26:32;;;;;;;2.20;1.10;;;12.30;99.90;;;;;;4926376;29;20118;-65
2022/06/12 04:29:16;;;;;;;2.55;0.93;;;12.20;99.90;;;;;;4925621;29;20083;-66
2022/06/12 04:31:45;;;;;;;2.67;1.33;;;12.30;99.90;;;;;;4896340;29;20146;-65
2022/06/12 04:34:16;;;;;;;2.92;1.17;;;12.30;99.90;;;;;;4909962;29;20048;-65
2022/06/12 04:36:44;;;;;;;1.92;1.13;;;12.30;99.90;;;;;;4895058;29;20055;-65
2022/06/12 04:39:13;;;;;;;3.83;1.25;;;12.40;99.90;;;;;;4927170;29;20047;-65
2022/06/12 04:41:39;;;;;;;2.08;1.02;;;12.30;99.90;;;;;;4932987;29;20146;-68
2022/06/12 04:44:06;;;;;;;1.70;1.15;;;12.40;99.90;;;;;;4933943;29;20178;-66
2022/06/12 04:46:34;;;;;;;2.63;1.10;;;12.40;99.90;;;;;;4930006;29;20139;-66
2022/06/12 04:49:01;;;;;;;2.03;1.33;;;12.40;99.90;;;;;;4917943;29;20087;-66
2022/06/12 04:51:28;;;;;;;2.38;1.17;;;12.40;99.90;;;;;;4920145;29;20134;-66
2022/06/12 04:53:55;;;;;;;2.33;1.10;;;12.40;99.90;;;;;;4917101;29;20155;-65
2022/06/12 04:56:23;;;;;;;3.50;1.45;;;12.50;99.90;;;;;;4936046;29;20059;-66
2022/06/12 04:58:51;;;;;;;5.10;1.75;;;12.50;99.90;;;;;;4918088;29;20135;-66
2022/06/12 05:01:19;;;;;;;3.47;1.50;;;12.50;99.90;;;;;;4921522;29;20126;-66
2022/06/12 05:03:46;;;;;;;2.35;1.20;;;12.60;99.90;;;;;;4929029;29;20051;-67
2022/06/12 05:06:13;;;;;;;2.38;1.27;;;12.60;99.90;;;;;;4908660;29;20142;-66
2022/06/12 05:08:40;;;;;;;6.45;1.63;;;12.60;99.90;;;;;;4924886;29;20486;-66
2022/06/12 05:11:06;;;;;;;3.55;1.70;;;12.70;99.90;;;;;;4907674;29;20143;-65
2022/06/12 05:13:33;;;;;;;3.97;2.35;;;12.70;99.90;;;;;;4923092;29;20134;-66
2022/06/12 05:16:00;;;;;;;2.67;1.50;;;12.70;99.90;;;;;;4925186;29;20098;-66
2022/06/12 05:18:28;;;;;;;3.08;1.30;;;12.80;99.90;;;;;;4908102;29;20135;-66
2022/06/12 05:20:55;;;;;;;2.75;1.27;;;12.80;99.90;;;;;;4925286;29;20539;-65
2022/06/12 05:23:22;;;;;;;2.35;1.20;;;12.90;99.90;;;;;;4907304;29;20456;-66
2022/06/12 05:25:49;;;;;;;4.55;1.63;;;13.00;99.90;;;;;;4907243;29;20194;-65
2022/06/12 05:28:17;;;;;;;3.88;1.52;;;13.00;99.90;;;;;;4889674;29;20949;-65
2022/06/12 05:30:43;;;;;;;5.88;1.98;;;13.00;99.90;;;;;;4891972;29;20122;-65
2022/06/12 05:33:11;;;;;;;4.28;1.58;;;13.10;99.90;;;;;;4912705;29;20104;-66
2022/06/12 05:35:38;;;;;;;5.53;1.67;;;13.10;99.90;;;;;;4907598;29;20644;-66
2022/06/12 05:38:06;;;;;;;3.72;1.80;;;13.20;99.90;;;;;;4924325;29;20119;-66
2022/06/12 05:40:35;;;;;;;5.10;2.35;;;13.20;99.90;;;;;;4906952;29;20063;-66
2022/06/12 05:43:02;;;;;;;4.80;2.70;;;13.30;99.90;;;;;;4905823;29;20095;-66
2022/06/12 05:45:30;;;;;;;2.88;1.85;;;13.30;99.90;;;;;;4911886;29;20115;-66
2022/06/12 05:48:02;;;;;;;4.35;2.17;;;13.40;99.90;;;;;;4907658;29;20083;-66
2022/06/12 05:50:31;;;;;;;4.55;1.90;;;13.40;99.90;;;;;;4924633;29;20135;-66
2022/06/12 05:52:58;;;;;;;5.40;2.00;;;13.40;99.90;;;;;;4907263;29;20113;-66
2022/06/12 05:55:25;;;;;;;3.60;2.22;;;13.40;99.90;;;;;;4891623;29;20150;-66
2022/06/12 05:57:52;;;;;;;5.50;2.38;;;13.50;99.90;;;;;;4922707;29;20522;-66
2022/06/12 06:00:24;;;;;;;4.32;2.13;;;13.50;99.90;;;;;;4926020;29;20067;-66
2022/06/12 06:02:51;;;;;;;4.40;1.60;;;13.50;99.90;;;;;;4910637;29;20079;-66
2022/06/12 06:05:18;;;;;;;4.35;1.88;;;13.60;99.90;;;;;;4927832;29;20055;-66
2022/06/12 06:07:46;;;;;;;4.25;1.70;;;13.60;99.90;;;;;;4914015;29;20083;-66
2022/06/12 06:10:16;;;;;;;6.03;1.77;;;13.70;99.90;;;;;;4924455;29;20083;-66
2022/06/12 06:12:43;;;;;;;4.05;1.45;;;13.70;99.90;;;;;;4892350;29;20662;-66
2022/06/12 06:15:10;;;;;;;3.60;1.48;;;13.80;99.90;;;;;;4911591;29;20052;-65
2022/06/12 06:17:37;;;;;;;3.97;1.85;;;13.80;99.90;;;;;;4924645;29;20572;-66
2022/06/12 06:20:05;;;;;;;4.75;2.20;;;13.90;99.90;;;;;;4906314;29;20134;-66
2022/06/12 06:22:32;;;;;;;4.72;1.75;;;13.90;99.90;;;;;;4907573;29;20966;-66
2022/06/12 06:24:59;;;;;;;3.72;2.10;;;13.90;99.90;;;;;;4908484;29;20052;-66
2022/06/12 06:27:25;;;;;;;3.28;1.50;;;13.90;99.90;;;;;;4920726;29;20063;-66
2022/06/12 06:29:52;;;;;;;3.00;1.67;;;14.00;99.90;;;;;;4906304;29;20139;-66
2022/06/12 06:32:19;;;;;;;5.68;2.30;;;14.00;99.90;;;;;;4927259;29;20055;-66
2022/06/12 06:34:46;;;;;;;4.50;1.92;;;14.10;99.90;;;;;;4927668;29;20504;-66
2022/06/12 06:37:13;;;;;;;3.30;1.70;;;14.10;99.90;;;;;;4927406;29;20138;-65
2022/06/12 06:39:40;;;;;;;4.95;1.90;;;14.20;99.90;;;;;;4927646;29;20048;-66
2022/06/12 06:42:07;;;;;;;3.13;1.90;;;14.30;99.90;;;;;;4926073;29;20138;-66
2022/06/12 06:47:19;;;;;;;5.93;1.80;;;14.50;99.90;;;;;;4923704;29;20047;-66
2022/06/12 06:49:46;;;;;;;5.13;2.00;;;14.60;99.90;;;;;;4927627;29;20552;-66
2022/06/12 06:52:12;;;;;;;5.07;1.98;;;14.60;99.90;;;;;;4926030;29;20134;-66
2022/06/12 06:54:40;;;;;;;5.72;2.10;;;14.60;99.90;;;;;;4927048;29;20355;-65
2022/06/12 06:57:07;;;;;;;3.35;1.70;;;14.60;99.90;;;;;;4906943;29;20166;-66
2022/06/12 06:59:34;;;;;;;5.25;2.58;;;14.60;99.90;;;;;;4894217;29;20130;-66
2022/06/12 07:02:01;;;;;;;3.63;1.90;;;14.60;99.90;;;;;;4894644;29;20515;-66
2022/06/12 07:04:27;;;;;;;3.97;1.95;;;14.70;99.90;;;;;;4917576;29;20523;-66
2022/06/12 07:06:54;;;;;;;3.72;1.92;;;14.80;99.90;;;;;;4927013;29;20052;-66
2022/06/12 07:09:21;;;;;;;4.03;1.83;;;14.90;99.90;;;;;;4908425;29;20047;-66
2022/06/12 07:11:47;;;;;;;4.53;1.92;;;15.00;99.90;;;;;;4907236;29;20067;-64
2022/06/12 07:14:14;;;;;;;4.03;2.05;;;15.10;99.90;;;;;;4931182;29;20047;-65
2022/06/12 07:16:41;;;;;;;3.80;1.88;;;15.20;99.90;;;;;;4908280;29;20059;-65
2022/06/12 07:19:08;;;;;;;3.28;1.65;;;15.20;99.90;;;;;;4894009;29;20039;-65
2022/06/12 07:21:35;;;;;;;3.67;1.83;;;15.40;99.90;;;;;;4936937;29;20479;-65
2022/06/12 07:24:02;;;;;;;2.70;1.73;;;15.40;99.90;;;;;;4919555;29;20091;-65
2022/06/12 07:26:31;;;;;;;5.60;2.33;;;15.50;99.90;;;;;;4905824;29;20127;-65
2022/06/12 07:28:58;;;;;;;3.42;1.67;;;15.50;99.90;;;;;;4928441;29;20087;-65
2022/06/12 07:31:25;;;;;;;4.03;1.77;;;15.50;99.90;;;;;;4925590;29;20052;-65
2022/06/12 07:33:52;;;;;;;3.40;1.85;;;15.50;99.90;;;;;;4926029;29;20094;-65
2022/06/12 07:36:23;;;;;;;3.17;1.50;;;15.60;99.90;;;;;;4909260;29;20110;-65
2022/06/12 07:38:50;;;;;;;3.67;1.80;;;15.60;99.90;;;;;;4928685;29;20082;-65
2022/06/12 07:41:37;;;;;;;2.95;1.63;;;15.60;99.90;;;;;;4918730;29;20078;-66
2022/06/12 07:44:04;;;;;;;5.40;2.08;;;15.70;99.90;;;;;;4921689;29;20468;-65
2022/06/12 07:46:31;;;;;;;3.72;2.15;;;15.70;99.90;;;;;;4909444;29;20471;-65
2022/06/12 07:48:59;;;;;;;3.20;1.77;;;15.70;99.90;;;;;;4929299;29;20214;-65
2022/06/12 07:51:27;;;;;;;4.97;2.50;;;15.80;99.90;;;;;;4907801;29;20074;-65
2022/06/12 07:53:53;;;;;;;4.40;1.90;;;15.90;99.90;;;;;;4916944;29;20055;-65
2022/06/12 07:56:21;;;;;;;4.05;1.92;;;16.00;99.90;;;;;;4890844;29;20134;-65
2022/06/12 07:58:48;;;;;;;3.47;1.70;;;16.10;99.90;;;;;;4925391;29;20335;-65
2022/06/12 08:01:19;;;;;;;3.60;1.60;;;16.20;99.90;;;;;;4910986;29;20055;-65
2022/06/12 08:03:46;;;;;;;5.88;1.80;;;16.40;99.90;;;;;;4922779;29;20048;-65
2022/06/12 08:06:13;;;;;;;4.22;1.90;;;16.40;99.90;;;;;;4929635;29;20119;-65
2022/06/12 08:08:40;;;;;;;2.90;1.55;;;16.40;99.90;;;;;;4909295;29;20047;-66
2022/06/12 08:11:07;;;;;;;3.03;1.60;;;16.50;99.90;;;;;;4925389;29;20090;-65
2022/06/12 08:13:34;;;;;;;4.00;2.05;;;16.60;99.90;;;;;;4909839;29;20185;-70
2022/06/12 08:16:01;;;;;;;5.43;1.30;;;16.60;99.90;;;;;;4908269;29;20048;-76
2022/06/12 08:18:29;;;;;;;2.90;1.42;;;16.60;99.90;;;;;;4915454;29;20086;-78
2022/06/12 08:21:03;;;;;;;2.92;1.40;;;16.80;99.90;;;;;;4936698;29;20054;-65
2022/06/12 08:23:37;;;;;;;3.60;1.70;;;16.90;99.90;;;;;;4926105;29;20162;-65
2022/06/12 08:26:20;;;;;;;2.53;1.67;;;16.90;99.90;;;;;;4909338;29;20043;-65
2022/06/12 08:28:48;;;;;;;;;;;17.10;99.90;;;;;;4927838;29;20190;-65
2022/06/12 08:31:26;;;;;;;3.72;1.85;;;17.10;99.90;;;;;;4926900;29;20009;-65
2022/06/12 08:33:55;;;;;;;3.75;1.75;;;17.10;99.90;;;;;;4893399;29;20194;-65
2022/06/12 08:36:22;;;;;;;3.75;1.75;;;17.20;99.90;;;;;;4879880;29;20048;-66
2022/06/12 08:38:49;;;;;;;3.70;1.50;;;17.20;99.90;;;;;;4907946;29;20083;-65
2022/06/12 08:41:18;;;;;;;3.22;1.52;;;17.20;99.90;;;;;;4926791;29;20134;-66
2022/06/12 08:43:56;;;;;;;3.88;1.50;;;17.30;99.90;;;;;;4908554;29;20111;-66
2022/06/12 08:46:43;;;;;;;3.55;1.40;;;17.40;99.90;;;;;;4910255;29;20055;-65
2022/06/12 08:49:16;;;;;;;3.75;1.60;;;17.40;99.90;;;;;;4896905;29;20127;-66
2022/06/12 08:51:50;;;;;;;5.50;2.03;;;17.30;99.90;;;;;;4891552;29;20339;-66
2022/06/12 08:54:36;;;;;;;3.85;1.70;;;17.40;99.90;;;;;;4890810;29;20476;-66
2022/06/12 08:57:08;;;;;;;4.03;1.70;;;17.30;99.90;;;;;;4909556;29;20093;-66
2022/06/12 08:59:36;;;;;;;2.88;1.52;;;17.40;99.90;;;;;;4894573;29;20221;-67
2022/06/12 09:02:04;;;;;;;2.70;1.42;;;17.40;99.90;;;;;;4895422;29;20138;-66
2022/06/12 09:04:31;;;;;;;3.45;1.85;;;17.50;99.90;;;;;;4895009;29;20057;-65
2022/06/12 09:07:08;;;;;;;2.97;1.35;;;17.50;99.90;;;;;;4906330;29;20062;-66
2022/06/12 09:09:42;;;;;;;3.45;1.83;;;17.60;99.90;;;;;;4909269;29;20086;-66
2022/06/12 09:12:49;;;;;;;4.53;1.83;;;17.70;99.90;;;;;;4920653;29;20055;-67
2022/06/12 09:15:26;;;;;;;3.67;1.80;;;17.80;99.90;;;;;;4908817;29;20050;-67
2022/06/12 09:18:28;;;;;;;3.90;1.60;;;17.80;99.90;;;;;;4917293;29;20114;-66
2022/06/12 09:21:03;;;;;;;2.83;1.30;;;17.80;99.90;;;;;;4914449;29;20048;-66
2022/06/12 09:23:37;;;;;;;3.92;2.15;;;18.00;99.90;;;;;;4893239;29;20143;-67
2022/06/12 09:26:17;;;;;;;2.58;1.30;;;18.10;99.90;;;;;;4919673;29;20064;-66
2022/06/12 09:28:55;;;;;;;2.63;1.33;;;18.30;99.90;;;;;;4887182;29;20116;-66
2022/06/12 09:31:32;;;;;;;3.35;2.38;;;18.30;99.90;;;;;;4909458;29;20091;-65
2022/06/12 09:34:11;;;;;;;2.63;1.30;;;18.50;99.90;;;;;;4909544;29;20567;-65
2022/06/12 09:36:56;;;;;;;2.35;1.50;;;18.60;99.90;;;;;;4926967;29;20058;-66
2022/06/12 09:39:47;;;;;;;3.78;1.38;;;18.80;99.90;;;;;;4927006;29;20130;-66
2022/06/12 09:42:22;;;;;;;2.35;1.17;;;18.90;99.90;;;;;;4892631;29;20154;-66
2022/06/12 09:44:50;;;;;;;3.70;1.88;;;18.80;99.90;;;;;;4925855;29;20083;-66
2022/06/12 09:47:44;;;;;;;2.50;1.52;;;18.50;99.90;;;;;;4926059;29;20047;-66
2022/06/12 09:50:17;;;;;;;2.55;1.48;;;18.40;99.90;;;;;;4909548;29;20675;-66
2022/06/12 09:53:18;;;;;;;2.78;1.42;;;18.40;99.90;;;;;;4891785;29;20540;-66
2022/06/12 09:55:48;;;;;;;2.53;1.27;;;18.50;99.90;;;;;;4907782;29;20135;-66
2022/06/12 09:58:33;;;;;;;2.65;1.20;;;18.80;99.90;;;;;;4909237;29;20056;-65
2022/06/12 10:01:21;;;;;;;3.05;1.60;;;18.90;99.90;;;;;;4888225;29;20099;-66
2022/06/12 10:03:55;;;;;;;1.98;1.33;;;18.90;99.90;;;;;;4910284;29;20058;-66
2022/06/12 10:06:31;;;;;;;2.40;1.23;;;19.10;99.90;;;;;;4909440;29;20081;-66
2022/06/12 10:09:10;;;;;;;3.10;1.73;;;19.10;99.90;;;;;;4892914;29;20139;-66
2022/06/12 10:11:40;;;;;;;1.80;1.00;;;19.30;99.90;;;;;;4925970;29;20055;-66
2022/06/12 10:14:30;;;;;;;1.50;1.00;;;19.60;99.50;;;;;;4876728;29;20055;-66
2022/06/12 10:16:58;;;;;;;2.10;0.77;;;19.80;98.90;;;;;;4910896;29;20324;-66
2022/06/12 10:19:44;;;;;;;2.25;1.20;;;20.00;98.50;;;;;;4906624;29;20059;-66
2022/06/12 10:22:23;;;;;;;2.17;1.00;;;20.10;98.10;;;;;;4921583;29;20044;-66
2022/06/12 10:24:53;;;;;;;2.25;0.93;;;20.30;98.30;;;;;;4907798;29;20070;-66
2022/06/12 10:27:20;;;;;;;1.60;0.93;;;20.40;97.20;;;;;;4923387;29;20515;-66
2022/06/12 10:30:00;;;;;;;3.00;1.08;;;20.50;97.50;;;;;;4892543;29;20100;-65
2022/06/12 10:33:24;;;;;;;2.42;1.20;;;20.70;96.50;;;;;;4923833;29;20098;-66
2022/06/12 10:35:55;;;;;;;;;;;20.70;96.30;;;;;;4874307;29;20146;-65
2022/06/12 10:38:22;;;;;;;1.88;1.08;;;20.70;96.70;;;;;;4880431;29;20088;-66
2022/06/12 10:40:55;;;;;;;2.50;1.10;;;20.80;96.10;;;;;;4912022;29;20536;-65
2022/06/12 10:43:51;;;;;;;3.17;1.00;;;20.80;95.40;;;;;;4922478;29;20613;-66
2022/06/12 10:46:22;;;;;;;2.15;1.00;;;20.90;94.80;;;;;;4910391;29;20087;-66
2022/06/12 10:49:01;;;;;;;2.13;1.13;;;21.10;95.40;;;;;;4923776;29;20055;-65
2022/06/12 10:51:36;;;;;;;1.98;1.00;;;21.10;94.70;;;;;;4902307;29;20102;-66
2022/06/12 10:54:09;;;;;;;2.88;0.93;;;21.00;95.30;;;;;;4930568;29;20126;-66
2022/06/12 10:57:17;;;;;;;1.38;0.95;;;21.00;96.00;;;;;;4916841;29;20446;-66
2022/06/12 11:00:12;;;;;;;1.75;0.80;;;21.00;94.40;;;;;;4879096;29;20052;-66
2022/06/12 11:03:01;;;;;;;1.77;1.02;;;21.20;94.70;;;;;;4894244;29;20457;-65
2022/06/12 11:05:56;;;;;;;3.25;1.00;;;21.10;94.10;;;;;;4925927;29;20067;-65
2022/06/12 11:08:41;;;;;;;1.98;1.17;;;20.90;94.80;;;;;;4923001;29;20086;-65
2022/06/12 11:11:18;;;;;;;1.98;1.13;;;20.70;94.70;;;;;;4922961;29;20130;-66
2022/06/12 11:13:45;;;;;;;2.35;1.10;;;20.80;95.10;;;;;;4911894;29;20130;-65
2022/06/12 11:16:29;;;;;;;3.05;1.35;;;20.80;94.40;;;;;;4930632;29;20059;-66
2022/06/12 11:19:15;;;;;;;1.70;1.10;;;20.80;94.50;;;;;;4930304;29;20091;-66
2022/06/12 11:22:16;;;;;;;2.88;1.15;;;20.80;94.70;;;;;;4927856;29;20139;-66
2022/06/12 11:25:06;;;;;;;2.40;1.25;;;20.80;93.40;;;;;;4908475;29;20139;-66
2022/06/12 11:27:37;;;;;;;1.75;1.00;;;20.90;93.60;;;;;;4913263;29;20515;-65
2022/06/12 11:30:26;;;;;;;1.95;0.85;;;21.00;92.80;;;;;;4909283;29;20131;-66
2022/06/12 11:33:02;;;;;;;2.08;0.85;;;21.20;92.70;;;;;;4908960;29;20075;-66
2022/06/12 11:35:45;;;;;;;1.48;0.60;;;21.30;93.20;;;;;;4906874;29;20134;-65
2022/06/12 11:38:22;;;;;;;1.30;0.70;;;21.40;92.20;;;;;;4919813;29;20432;-65
2022/06/12 11:41:14;;;;;;;1.30;0.77;;;21.50;91.80;;;;;;4907942;29;20090;-66
2022/06/12 11:44:04;;;;;;;3.65;1.50;;;21.50;92.30;;;;;;4882987;29;20139;-66
2022/06/12 11:46:46;;;;;;;2.00;1.05;;;21.50;92.20;;;;;;4903455;29;20043;-65
2022/06/12 11:49:38;;;;;;;2.70;1.60;;;21.50;92.00;;;;;;4923608;29;20094;-65
2022/06/12 11:52:05;;;;;;;2.72;1.20;;;21.50;92.10;;;;;;4910114;29;20067;-66
2022/06/12 11:54:56;;;;;;;2.63;1.25;;;21.60;92.20;;;;;;4921870;29;20488;-66
2022/06/12 11:57:26;;;;;;;4.20;2.25;;;21.50;91.80;;;;;;4905265;29;20214;-65
2022/06/12 12:00:04;;;;;;;3.28;1.20;;;21.30;91.80;;;;;;4921795;29;20162;-66
2022/06/12 12:03:07;;;;;;;2.38;1.27;;;21.30;91.90;;;;;;4907221;29;20084;-66
2022/06/12 12:05:49;;;;;;;2.13;0.93;;;22.00;92.00;;;;;;4906180;29;20055;-66
2022/06/12 12:08:29;;;;;;;2.28;1.40;;;22.50;91.20;;;;;;4907473;29;20114;-67
2022/06/12 12:11:08;;;;;;;4.20;1.20;;;22.40;91.00;;;;;;4891635;29;20645;-66
2022/06/12 12:13:43;;;;;;;2.72;1.27;;;22.30;90.80;;;;;;4903189;29;20186;-66
2022/06/12 12:16:31;;;;;;;2.33;1.42;;;22.00;90.70;;;;;;4907103;29;20067;-66
2022/06/12 12:19:03;;;;;;;3.13;1.45;;;22.00;91.10;;;;;;4921322;29;20507;-66
2022/06/12 12:21:59;;;;;;;3.00;1.55;;;22.50;90.20;;;;;;4903924;29;20147;-67
2022/06/12 12:24:31;;;;;;;3.22;1.30;;;22.80;90.10;;;;;;4917746;29;20131;-65
2022/06/12 12:27:01;;;;;;;1.10;0.90;;;23.00;89.60;;;;;;4905224;29;20087;-65
2022/06/12 12:29:29;;;;;;;1.73;0.95;;;23.60;88.70;;;;;;4893282;29;20087;-66
2022/06/12 12:31:56;;;;;;;1.85;1.02;;;24.20;86.20;;;;;;4916112;29;20131;-66
2022/06/12 12:34:24;;;;;;;2.67;1.08;;;24.20;85.20;;;;;;4888240;29;20043;-65
2022/06/12 12:42:25;;;;;;;2.17;1.30;;;23.80;84.90;;;;;;4907091;29;20126;-66
2022/06/12 12:44:52;;;;;;;2.30;1.42;;;23.70;85.80;;;;;;4919575;29;20159;-66
2022/06/12 12:47:27;;;;;;;1.95;1.20;;;23.90;84.80;;;;;;4906436;29;20047;-66
2022/06/12 12:50:10;;;;;;;1.70;0.90;;;23.90;84.90;;;;;;4925823;29;20060;-76
2022/06/12 12:52:43;;;;;;;1.42;0.75;;;24.20;84.30;;;;;;4891337;29;20143;-66
2022/06/12 12:55:28;;;;;;;1.73;0.90;;;24.70;84.50;;;;;;4905491;29;20135;-66
2022/06/12 12:57:57;;;;;;;2.95;1.42;;;24.70;81.80;;;;;;4905455;29;20138;-66
2022/06/12 13:00:33;;;;;;;2.97;1.08;;;24.50;81.40;;;;;;4922375;29;20081;-66
2022/06/12 13:03:08;;;;;;;1.33;0.90;;;24.80;78.40;;;;;;4923630;29;20044;-66
2022/06/12 13:05:47;;;;;;;1.05;0.70;;;25.50;79.10;;;;;;4919625;29;20126;-66
2022/06/12 13:08:36;;;;;;;1.65;1.10;;;25.50;78.90;;;;;;4925131;29;20090;-66
2022/06/12 13:11:51;;;;;;;1.50;1.00;;;25.20;78.20;;;;;;4890807;29;20083;-66
2022/06/12 13:14:39;;;;;;;2.45;1.13;;;24.60;78.50;;;;;;4901453;29;20056;-66
2022/06/12 13:17:37;;;;;;;2.53;1.65;;;24.00;79.20;;;;;;4905739;29;20179;-67
2022/06/12 13:20:25;;;;;;;3.33;1.73;;;24.00;79.30;;;;;;4890795;29;20662;-68
2022/06/12 13:23:11;;;;;;;2.30;1.30;;;24.80;77.30;;;;;;4890357;29;20609;-73
2022/06/12 13:25:39;;;;;;;2.90;1.83;;;25.20;78.30;;;;;;4922820;29;20109;-68
2022/06/12 13:28:25;;;;;;;1.77;1.30;;;25.40;76.60;;;;;;4890163;29;20057;-74
2022/06/12 13:30:52;;;;;;;2.78;1.15;;;25.00;76.30;;;;;;4909076;29;20072;-77
2022/06/12 13:33:21;;;;;;;1.63;0.98;;;24.40;77.70;;;;;;4907840;29;20051;-75
2022/06/12 13:36:06;;;;;;;1.45;1.00;;;24.50;79.60;;;;;;4892857;29;20153;-77
2022/06/12 13:38:46;;;;;;;2.33;1.00;;;25.50;78.30;;;;;;4907645;29;20064;-78
2022/06/12 13:41:36;;;;;;;2.15;0.77;;;26.40;73.90;;;;;;4908294;29;20047;-66